createdAt,value
2022-11-22T00:00:21.284Z,100.00
2022-11-22T00:03:43.247Z,100.00
2022-11-22T00:07:04.833Z,100.00
2022-11-22T00:10:08.118Z,100.00
2022-11-22T00:13:09.940Z,100.00
2022-11-22T00:16:11.545Z,100.00
2022-11-22T00:19:13.303Z,100.00
2022-11-22T00:22:15.633Z,100.00
2022-11-22T00:25:17.355Z,100.00
2022-11-22T00:28:22.217Z,100.00
2022-11-22T00:31:24.116Z,100.00
2022-11-22T00:34:26.018Z,100.00
2022-11-22T00:37:27.730Z,100.00
2022-11-22T00:40:29.411Z,100.00
2022-11-22T00:43:31.604Z,100.00
2022-11-22T00:46:33.312Z,100.00
2022-11-22T00:49:34.932Z,100.00
2022-11-22T00:52:36.579Z,100.00
2022-11-22T00:55:38.332Z,100.00
2022-11-22T00:58:39.946Z,100.00
2022-11-22T01:01:41.794Z,100.00
2022-11-22T01:04:43.673Z,100.00
2022-11-22T01:07:45.541Z,100.00
2022-11-22T01:10:47.147Z,100.00
2022-11-22T01:13:48.882Z,100.00
2022-11-22T01:16:50.599Z,100.00
2022-11-22T01:19:52.596Z,100.00
2022-11-22T01:22:54.165Z,100.00
2022-11-22T01:25:56.030Z,100.00
2022-11-22T01:28:57.538Z,100.00
2022-11-22T01:31:59.462Z,100.00
2022-11-22T01:35:00.994Z,100.00
2022-11-22T01:38:03.173Z,100.00
2022-11-22T01:41:04.947Z,100.00
2022-11-22T01:44:20.371Z,100.00
2022-11-22T01:47:24.895Z,100.00
2022-11-22T01:50:28.200Z,100.00
2022-11-22T01:53:34.492Z,100.00
2022-11-22T01:56:36.804Z,100.00
2022-11-22T01:59:42.471Z,100.00
2022-11-22T02:02:51.813Z,100.00
2022-11-22T02:05:53.919Z,100.00
2022-11-22T02:09:02.024Z,100.00
2022-11-22T02:12:05.548Z,100.00
2022-11-22T02:15:08.200Z,100.00
2022-11-22T02:18:09.942Z,100.00
2022-11-22T02:21:12.028Z,100.00
2022-11-22T02:24:20.176Z,100.00
2022-11-22T02:27:23.129Z,100.00
2022-11-22T02:30:25.100Z,100.00
2022-11-22T02:33:26.998Z,100.00
2022-11-22T02:36:28.872Z,100.00
2022-11-22T02:39:31.892Z,100.00
2022-11-22T02:42:34.024Z,100.00
2022-11-22T02:45:35.826Z,100.00
2022-11-22T02:48:42.058Z,100.00
2022-11-22T02:51:43.909Z,100.00
2022-11-22T02:54:46.200Z,100.00
2022-11-22T02:57:47.994Z,100.00
2022-11-22T03:00:49.655Z,100.00
2022-11-22T03:03:51.312Z,100.00
2022-11-22T03:06:57.769Z,100.00
2022-11-22T03:09:59.813Z,100.00
2022-11-22T03:13:01.582Z,100.00
2022-11-22T03:16:03.297Z,100.00
2022-11-22T03:19:04.937Z,100.00
2022-11-22T03:22:06.756Z,100.00
2022-11-22T03:25:08.491Z,100.00
2022-11-22T03:28:10.150Z,100.00
2022-11-22T03:31:12.124Z,100.00
2022-11-22T03:34:14.259Z,100.00
2022-11-22T03:37:16.060Z,100.00
2022-11-22T03:40:17.703Z,100.00
2022-11-22T03:43:19.494Z,100.00
2022-11-22T03:46:21.171Z,100.00
2022-11-22T03:49:22.986Z,100.00
2022-11-22T03:52:24.768Z,100.00
2022-11-22T03:55:26.502Z,100.00
2022-11-22T03:58:28.478Z,100.00
2022-11-22T04:01:30.265Z,100.00
2022-11-22T04:04:31.915Z,100.00
2022-11-22T04:07:33.815Z,100.00
2022-11-22T04:10:35.540Z,100.00
2022-11-22T04:13:55.973Z,100.00
2022-11-22T04:16:57.720Z,100.00
2022-11-22T04:20:18.388Z,100.00
2022-11-22T04:23:22.223Z,100.00
2022-11-22T04:26:23.780Z,100.00
2022-11-22T04:29:25.636Z,100.00
2022-11-22T04:32:45.674Z,100.00
2022-11-22T04:35:51.219Z,100.00
2022-11-22T04:38:52.919Z,100.00
2022-11-22T04:42:14.697Z,100.00
2022-11-22T04:45:16.765Z,100.00
2022-11-22T04:48:18.655Z,100.00
2022-11-22T04:51:39.297Z,100.00
2022-11-22T04:54:40.858Z,100.00
2022-11-22T04:57:42.534Z,100.00
2022-11-22T05:00:44.474Z,100.00
2022-11-22T05:03:46.326Z,100.00
2022-11-22T05:06:47.986Z,100.00
2022-11-22T05:09:49.825Z,100.00
2022-11-22T05:12:51.566Z,100.00
2022-11-22T05:15:53.382Z,100.00
2022-11-22T05:19:00.921Z,100.00
2022-11-22T05:22:02.664Z,100.00
2022-11-22T05:25:04.601Z,100.00
2022-11-22T05:28:06.473Z,100.00
2022-11-22T05:31:09.925Z,100.00
2022-11-22T05:34:11.592Z,100.00
2022-11-22T05:37:13.398Z,100.00
2022-11-22T05:40:15.343Z,100.00
2022-11-22T05:43:17.107Z,100.00
2022-11-22T05:46:24.734Z,100.00
2022-11-22T05:49:27.306Z,100.00
2022-11-22T05:52:29.206Z,100.00
2022-11-22T05:55:30.897Z,100.00
2022-11-22T05:58:32.794Z,100.00
2022-11-22T06:01:34.574Z,100.00
2022-11-22T06:04:39.388Z,100.00
2022-11-22T06:07:41.040Z,100.00
2022-11-22T06:10:42.757Z,100.00
2022-11-22T06:13:45.725Z,100.00
2022-11-22T06:16:47.332Z,100.00
2022-11-22T06:19:48.985Z,100.00
2022-11-22T06:22:50.691Z,100.00
2022-11-22T06:25:59.344Z,100.00
2022-11-22T06:29:01.015Z,100.00
2022-11-22T06:32:04.009Z,100.00
2022-11-22T06:35:06.368Z,100.00
2022-11-22T06:38:08.277Z,100.00
2022-11-22T06:41:12.194Z,100.00
2022-11-22T06:44:13.952Z,100.00
2022-11-22T06:47:17.592Z,100.00
2022-11-22T06:50:21.891Z,100.00
2022-11-22T06:53:45.775Z,100.00
2022-11-22T06:56:45.761Z,100.00
2022-11-22T06:59:47.267Z,100.00
2022-11-22T07:02:49.032Z,100.00
2022-11-22T07:05:51.631Z,100.00
2022-11-22T07:08:53.540Z,100.00
2022-11-22T07:11:55.355Z,100.00
2022-11-22T07:14:56.975Z,100.00
2022-11-22T07:17:58.635Z,100.00
2022-11-22T07:21:14.701Z,100.00
2022-11-22T07:24:16.647Z,100.00
2022-11-22T07:27:18.285Z,100.00
2022-11-22T07:30:20.253Z,100.00
2022-11-22T07:33:22.105Z,100.00
2022-11-22T07:36:24.324Z,100.00
2022-11-22T07:39:25.886Z,100.00
2022-11-22T07:42:27.571Z,100.00
2022-11-22T07:45:29.205Z,100.00
2022-11-22T07:48:30.807Z,100.00
2022-11-22T07:51:32.566Z,100.00
2022-11-22T07:54:34.084Z,100.00
2022-11-22T07:57:36.040Z,100.00
2022-11-22T08:00:37.843Z,100.00
2022-11-22T08:03:39.693Z,100.00
2022-11-22T08:06:41.729Z,100.00
2022-11-22T08:09:43.469Z,100.00
2022-11-22T08:12:45.046Z,100.00
2022-11-22T08:15:49.742Z,100.00
2022-11-22T08:18:51.997Z,100.00
2022-11-22T08:21:58.468Z,100.00
2022-11-22T08:25:00.627Z,100.00
2022-11-22T08:28:02.276Z,100.00
2022-11-22T08:31:08.553Z,100.00
2022-11-22T08:34:10.424Z,100.00
2022-11-22T08:37:12.292Z,100.00
2022-11-22T08:40:14.053Z,100.00
2022-11-22T08:43:15.714Z,100.00
2022-11-22T08:46:18.185Z,100.00
2022-11-22T08:49:19.966Z,100.00
2022-11-22T08:52:21.728Z,100.00
2022-11-22T08:55:23.841Z,100.00
2022-11-22T08:58:25.674Z,100.00
2022-11-22T09:01:27.401Z,100.00
2022-11-22T09:04:29.345Z,100.00
2022-11-22T09:10:52.767Z,100.00
2022-11-22T09:13:55.676Z,100.00
2022-11-22T09:16:57.398Z,100.00
2022-11-22T09:19:59.212Z,100.00
2022-11-22T09:23:02.357Z,100.00
2022-11-22T09:26:09.879Z,99.19
2022-11-22T09:29:11.683Z,97.68
2022-11-22T09:32:13.464Z,100.00
2022-11-22T09:35:17.361Z,100.00
2022-11-22T09:38:19.465Z,99.61
2022-11-22T09:41:43.151Z,99.62
2022-11-22T09:45:19.115Z,96.77
2022-11-22T09:48:33.302Z,93.07
2022-11-22T09:51:41.897Z,94.41
2022-11-22T09:54:57.164Z,97.96
2022-11-22T09:58:25.306Z,94.73
2022-11-22T10:01:31.991Z,94.27
2022-11-22T10:04:37.916Z,96.48
2022-11-22T10:07:48.220Z,98.66
2022-11-22T10:10:52.710Z,97.81
2022-11-22T10:13:59.396Z,95.93
2022-11-22T10:17:07.081Z,98.38
2022-11-22T10:20:26.535Z,100.00
2022-11-22T10:23:28.307Z,100.00
2022-11-22T10:26:34.324Z,100.00
2022-11-22T10:29:40.542Z,99.84
2022-11-22T10:33:09.165Z,98.25
2022-11-22T10:36:26.126Z,98.79
2022-11-22T10:39:46.640Z,99.02
2022-11-22T10:43:07.183Z,96.35
2022-11-22T10:46:25.889Z,96.96
2022-11-22T10:49:46.332Z,94.13
2022-11-22T10:52:54.870Z,94.29
2022-11-22T10:56:05.547Z,98.47
2022-11-22T10:59:41.490Z,98.58
2022-11-22T11:03:18.792Z,96.12
2022-11-22T11:06:49.441Z,99.71
2022-11-22T11:13:28.939Z,94.19
2022-11-22T11:16:34.063Z,96.45
2022-11-22T11:19:39.297Z,98.42
2022-11-22T11:26:19.501Z,98.53
2022-11-22T11:29:24.305Z,96.94
2022-11-22T11:32:25.972Z,94.36
2022-11-22T11:35:29.273Z,94.28
2022-11-22T11:38:32.673Z,95.03
2022-11-22T11:41:40.275Z,95.67
2022-11-22T11:44:45.098Z,96.00
2022-11-22T11:47:46.774Z,96.27
2022-11-22T11:50:48.452Z,96.67
2022-11-22T11:54:05.813Z,96.95
2022-11-22T11:57:23.328Z,97.64
2022-11-22T12:00:27.176Z,98.26
2022-11-22T12:03:28.831Z,98.16
2022-11-22T12:06:32.120Z,98.45
2022-11-22T12:09:36.960Z,99.02
2022-11-22T12:12:47.923Z,99.15
2022-11-22T12:16:14.988Z,99.28
2022-11-22T12:19:29.358Z,99.84
2022-11-22T12:22:56.003Z,99.97
2022-11-22T12:25:58.069Z,100.00
2022-11-22T12:29:00.477Z,100.00
2022-11-22T12:32:11.932Z,99.99
2022-11-22T12:35:17.137Z,100.00
2022-11-22T12:38:21.813Z,100.00
2022-11-22T12:41:27.301Z,100.00
2022-11-22T12:44:33.719Z,100.00
2022-11-22T12:47:40.885Z,100.00
2022-11-22T12:50:47.396Z,100.00
2022-11-22T12:53:49.684Z,100.00
2022-11-22T12:57:06.567Z,100.00
2022-11-22T13:00:19.481Z,100.00
2022-11-22T13:03:32.176Z,100.00
2022-11-22T13:06:48.256Z,100.00
2022-11-22T13:09:57.339Z,100.00
2022-11-22T13:13:00.697Z,100.00
2022-11-22T13:16:07.110Z,100.00
2022-11-22T13:19:14.467Z,100.00
2022-11-22T13:22:50.369Z,100.00
2022-11-22T13:26:10.316Z,100.00
2022-11-22T13:29:23.999Z,100.00
2022-11-22T13:32:30.716Z,100.00
2022-11-22T13:35:33.649Z,100.00
2022-11-22T13:38:35.308Z,100.00
2022-11-22T13:41:48.762Z,100.00
2022-11-22T13:44:56.313Z,100.00
2022-11-22T13:47:58.037Z,100.00
2022-11-22T13:50:59.809Z,100.00
2022-11-22T13:54:20.377Z,100.00
2022-11-22T13:57:42.743Z,100.00
2022-11-22T14:00:44.684Z,100.00
2022-11-22T14:03:46.452Z,100.00
2022-11-22T14:06:49.106Z,100.00
2022-11-22T14:09:50.758Z,100.00
2022-11-22T14:12:55.895Z,100.00
2022-11-22T14:16:08.072Z,100.00
2022-11-22T14:19:18.958Z,100.00
2022-11-22T14:22:44.996Z,100.00
2022-11-22T14:25:49.422Z,100.00
2022-11-22T14:29:28.634Z,100.00
2022-11-22T14:32:57.608Z,100.00
2022-11-22T14:36:09.659Z,100.00
2022-11-22T14:39:47.588Z,100.00
2022-11-22T14:42:52.084Z,100.00
2022-11-22T14:45:58.543Z,100.00
2022-11-22T14:49:14.093Z,100.00
2022-11-22T14:52:23.285Z,100.00
2022-11-22T14:55:32.430Z,100.00
2022-11-22T14:58:38.938Z,100.00
2022-11-22T15:01:52.462Z,100.00
2022-11-22T15:09:14.557Z,100.00
2022-11-22T15:09:16.476Z,100.00
2022-11-22T15:12:41.257Z,100.00
2022-11-22T15:58:04.431Z,100.00
2022-11-22T16:01:18.809Z,100.00
2022-11-22T16:04:33.923Z,100.00
2022-11-22T16:07:37.900Z,100.00
2022-11-22T16:10:42.837Z,100.00
2022-11-22T16:13:44.634Z,100.00
2022-11-22T16:16:46.163Z,100.00
2022-11-22T16:19:47.886Z,100.00
2022-11-22T16:23:08.608Z,100.00
2022-11-22T16:26:30.811Z,100.00
2022-11-22T16:29:33.906Z,100.00
2022-11-22T16:32:35.929Z,100.00
2022-11-22T16:35:37.961Z,100.00
2022-11-22T16:38:39.867Z,100.00
2022-11-22T16:41:41.775Z,100.00
2022-11-22T16:44:43.343Z,100.00
2022-11-22T16:47:54.201Z,100.00
2022-11-22T16:51:24.282Z,100.00
2022-11-22T16:54:28.586Z,100.00
2022-11-22T16:57:30.504Z,100.00
2022-11-22T17:00:32.438Z,100.00
2022-11-22T17:03:36.520Z,100.00
2022-11-22T17:06:38.591Z,100.00
2022-11-22T17:09:40.621Z,100.00
2022-11-22T17:12:43.404Z,100.00
2022-11-22T17:15:45.988Z,100.00
2022-11-22T17:18:48.421Z,100.00
2022-11-22T17:21:50.270Z,100.00
2022-11-22T17:24:51.851Z,100.00
2022-11-22T17:27:54.307Z,100.00
2022-11-22T17:30:59.786Z,100.00
2022-11-22T17:34:01.721Z,100.00
2022-11-22T17:37:03.523Z,100.00
2022-11-22T17:40:05.474Z,100.00
2022-11-22T17:43:07.123Z,100.00
2022-11-22T17:46:08.939Z,100.00
2022-11-22T17:49:15.721Z,100.00
2022-11-22T17:52:18.227Z,100.00
2022-11-22T17:55:19.872Z,100.00
2022-11-22T17:58:21.519Z,100.00
2022-11-22T18:01:23.730Z,100.00
2022-11-22T18:04:25.414Z,100.00
2022-11-22T18:07:29.669Z,100.00
2022-11-22T18:10:31.452Z,100.00
2022-11-22T18:13:34.071Z,100.00
2022-11-22T18:16:36.167Z,100.00
2022-11-22T18:19:41.039Z,100.00
2022-11-22T18:22:42.732Z,100.00
2022-11-22T18:25:44.761Z,100.00
2022-11-22T18:29:02.554Z,100.00
2022-11-22T18:32:08.648Z,100.00
2022-11-22T18:35:11.924Z,100.00
2022-11-22T18:38:13.674Z,100.00
2022-11-22T18:41:16.766Z,100.00
2022-11-22T18:44:18.673Z,100.00
2022-11-22T18:47:20.682Z,100.00
2022-11-22T18:50:22.260Z,100.00
2022-11-22T18:53:23.924Z,100.00
2022-11-22T18:56:26.334Z,100.00
2022-11-22T18:59:28.148Z,100.00
2022-11-22T19:02:30.140Z,100.00
2022-11-22T19:05:31.949Z,100.00
2022-11-22T19:08:37.623Z,100.00
2022-11-22T19:11:39.519Z,100.00
2022-11-22T19:14:41.496Z,100.00
2022-11-22T19:17:43.214Z,100.00
2022-11-22T19:20:55.144Z,100.00
2022-11-22T19:23:57.891Z,100.00
2022-11-22T19:27:00.036Z,100.00
2022-11-22T19:30:02.524Z,100.00
2022-11-22T19:33:04.286Z,100.00
2022-11-22T19:36:16.049Z,100.00
2022-11-22T19:39:20.030Z,100.00
2022-11-22T19:42:21.677Z,100.00
2022-11-22T19:45:23.305Z,100.00
2022-11-22T19:48:24.991Z,100.00
2022-11-22T19:51:28.671Z,100.00
2022-11-22T19:54:31.178Z,100.00
2022-11-22T19:57:32.928Z,100.00
2022-11-22T20:00:34.640Z,100.00
2022-11-22T20:03:38.529Z,100.00
2022-11-22T20:06:40.448Z,100.00
2022-11-22T20:09:42.177Z,100.00
2022-11-22T20:12:44.191Z,100.00
2022-11-22T20:15:46.074Z,100.00
2022-11-22T20:18:48.661Z,100.00
2022-11-22T20:21:53.009Z,100.00
2022-11-22T20:24:54.653Z,100.00
2022-11-22T20:27:56.333Z,100.00
2022-11-22T20:31:05.445Z,100.00
2022-11-22T20:34:09.756Z,100.00
2022-11-22T20:37:11.408Z,100.00
2022-11-22T20:40:13.058Z,100.00
2022-11-22T20:43:14.654Z,100.00
2022-11-22T20:46:24.999Z,100.00
2022-11-22T20:49:30.846Z,100.00
2022-11-22T20:52:32.529Z,100.00
2022-11-22T20:55:34.216Z,100.00
2022-11-22T20:58:36.383Z,100.00
2022-11-22T21:01:38.516Z,100.00
2022-11-22T21:04:40.338Z,100.00
2022-11-22T21:07:42.037Z,100.00
2022-11-22T21:10:43.763Z,100.00
2022-11-22T21:13:45.540Z,100.00
2022-11-22T21:16:47.370Z,100.00
2022-11-22T21:19:48.905Z,100.00
2022-11-22T21:22:54.366Z,100.00
2022-11-22T21:25:56.291Z,100.00
2022-11-22T21:28:59.541Z,100.00
2022-11-22T21:32:01.255Z,100.00
2022-11-22T21:35:02.916Z,100.00
2022-11-22T21:38:04.566Z,100.00
2022-11-22T21:41:38.217Z,100.00
2022-11-22T21:44:34.106Z,100.00
2022-11-22T21:47:35.855Z,100.00
2022-11-22T21:50:37.720Z,100.00
2022-11-22T21:53:39.422Z,100.00
2022-11-22T21:56:41.095Z,100.00
2022-11-22T21:59:42.799Z,100.00
2022-11-22T22:02:46.516Z,100.00
2022-11-22T22:05:49.548Z,100.00
2022-11-22T22:08:51.278Z,100.00
2022-11-22T22:11:53.130Z,100.00
2022-11-22T22:14:54.932Z,100.00
2022-11-22T22:17:56.775Z,100.00
2022-11-22T22:21:02.154Z,100.00
2022-11-22T22:24:04.103Z,100.00
2022-11-22T22:27:06.025Z,100.00
2022-11-22T22:30:08.970Z,100.00
2022-11-22T22:33:10.875Z,100.00
2022-11-22T22:36:13.211Z,100.00
2022-11-22T22:39:14.923Z,100.00
2022-11-22T22:42:16.516Z,100.00
2022-11-22T22:45:18.162Z,100.00
2022-11-22T22:48:20.578Z,100.00
2022-11-22T22:51:33.197Z,100.00
2022-11-22T22:54:36.000Z,100.00
2022-11-22T22:57:37.689Z,100.00
2022-11-22T23:00:39.369Z,100.00
2022-11-22T23:03:41.147Z,100.00
2022-11-22T23:06:43.973Z,100.00
2022-11-22T23:09:45.892Z,100.00
2022-11-22T23:12:47.670Z,100.00
2022-11-22T23:15:58.290Z,100.00
2022-11-22T23:19:00.447Z,100.00
2022-11-22T23:22:03.271Z,100.00
2022-11-22T23:25:06.494Z,100.00
2022-11-22T23:28:08.471Z,100.00
2022-11-22T23:31:13.615Z,100.00
2022-11-22T23:34:15.358Z,100.00
2022-11-22T23:37:17.104Z,100.00
2022-11-22T23:40:18.839Z,100.00
2022-11-22T23:43:20.542Z,100.00
2022-11-22T23:46:25.139Z,100.00
2022-11-22T23:49:26.926Z,100.00
2022-11-22T23:52:28.556Z,100.00
2022-11-22T23:55:30.232Z,100.00
2022-11-22T23:58:32.116Z,100.00
